Time;durP1;ratioP1;P1;durP2;ratioP2;P2;SDS_P1;SDS_P2;PMS_P1;PMS_P2;Temp;Humidity;BMP_temperature;BMP_pressure;BME280_temperature;BME280_humidity;BME280_pressure;Samples;Min_cycle;Max_cycle;Signal;HPM_P1;HPM_P2
2023/01/10 00:02:24;;;;;;;18.60;6.20;;;;;;;9.49;64.77;100924.20;108187;1284;21989;-62
2023/01/10 00:04:49;;;;;;;17.20;5.70;;;;;;;9.50;64.61;100926.30;108117;1280;22025;-62
2023/01/10 00:07:15;;;;;;;20.80;6.90;;;;;;;9.49;64.39;100927.88;108043;1287;22463;-65
2023/01/10 00:09:41;;;;;;;20.30;6.90;;;;;;;9.48;64.50;100929.29;108111;1287;21989;-63
2023/01/10 00:14:52;;;;;;;24.30;7.40;;;;;;;9.49;64.61;100923.85;108239;1284;21956;-64
2023/01/10 00:17:17;;;;;;;20.40;7.30;;;;;;;9.50;64.65;100925.41;108283;1284;21996;-61
2023/01/10 00:19:43;;;;;;;21.20;6.80;;;;;;;9.50;64.57;100926.30;108300;1286;21988;-61
2023/01/10 00:22:09;;;;;;;17.00;6.60;;;;;;;9.51;64.45;100918.08;108223;1286;24006;-62
2023/01/10 00:24:35;;;;;;;18.80;7.80;;;;;;;9.52;64.43;100912.45;108171;1287;21996;-65
2023/01/10 00:27:01;;;;;;;17.30;7.40;;;;;;;9.52;64.38;100913.34;108167;1287;22059;-64
2023/01/10 00:29:29;;;;;;;15.50;6.40;;;;;;;9.51;64.33;100912.81;107505;1284;1003018;-65
2023/01/10 00:31:56;;;;;;;23.70;6.60;;;;;;;9.53;64.30;100901.25;108318;1286;21988;-63
2023/01/10 00:34:22;;;;;;;21.40;6.90;;;;;;;9.59;64.17;100896.70;108299;1286;21994;-61
2023/01/10 00:36:48;;;;;;;23.30;7.70;;;;;;;9.61;63.98;100894.59;108265;1286;22024;-65
2023/01/10 00:39:18;;;;;;;19.80;7.00;;;;;;;9.62;63.83;100899.68;108127;1286;22459;-65
2023/01/10 00:44:39;;;;;;;21.80;7.70;;;;;;;9.55;63.62;100894.23;107759;1287;21986;-62
2023/01/10 00:47:04;;;;;;;32.30;9.20;;;;;;;9.56;63.80;100890.02;108057;1287;21997;-65
2023/01/10 00:49:30;;;;;;;19.60;8.60;;;;;;;9.53;63.50;100887.58;108124;1277;21987;-65
2023/01/10 00:51:58;;;;;;;23.90;9.70;;;;;;;9.52;63.50;100888.29;108306;1286;22044;-62
2023/01/10 00:54:24;;;;;;;22.30;9.20;;;;;;;9.50;63.67;100886.54;108255;1286;21991;-64
2023/01/10 00:56:50;;;;;;;23.20;7.90;;;;;;;9.50;63.92;100879.17;108227;1280;21994;-62
2023/01/10 00:59:16;;;;;;;19.20;7.90;;;;;;;9.53;64.03;100870.59;108170;1286;21999;-64
2023/01/10 01:01:41;;;;;;;23.00;7.90;;;;;;;9.57;63.92;100869.90;108284;1286;21990;-64
2023/01/10 01:04:07;;;;;;;24.00;8.60;;;;;;;9.58;63.81;100866.04;108273;1286;21983;-66
2023/01/10 01:06:33;;;;;;;25.40;8.90;;;;;;;9.56;63.83;100865.69;108110;1286;22010;-62
2023/01/10 01:08:58;;;;;;;23.60;9.80;;;;;;;9.53;64.05;100866.21;108142;1286;21992;-62
2023/01/10 01:11:24;;;;;;;22.10;8.30;;;;;;;9.51;64.02;100864.11;108182;1287;22054;-63
2023/01/10 01:13:51;;;;;;;19.80;8.70;;;;;;;9.52;64.10;100864.98;108095;1287;21999;-61
2023/01/10 01:16:16;;;;;;;40.90;10.60;;;;;;;9.52;64.03;100863.58;108105;1286;22027;-65
2023/01/10 01:18:42;;;;;;;20.40;8.00;;;;;;;9.46;64.27;100859.90;108187;1286;22027;-61
2023/01/10 01:21:08;;;;;;;22.20;9.90;;;;;;;9.35;64.88;100854.84;108211;1286;23742;-64
2023/01/10 01:23:34;;;;;;;20.30;9.40;;;;;;;9.40;64.93;100857.28;108258;1286;22009;-64
2023/01/10 05:13:24;;;;;;;46.70;16.90;;;;;;;4.12;100.00;100810.75;107375;1292;548389;-61
2023/01/10 05:16:15;;;;;;;48.10;17.90;;;;;;;7.11;88.46;100797.84;107508;1295;22674;-61
2023/01/10 05:18:42;;;;;;;50.40;18.90;;;;;;;7.49;83.15;100798.49;107529;1295;21993;-62
2023/01/10 05:21:10;;;;;;;42.70;19.50;;;;;;;7.69;81.47;100798.63;107676;1293;22102;-65
2023/01/10 05:23:36;;;;;;;44.60;16.40;;;;;;;8.01;79.50;100807.36;107633;1295;22006;-62
2023/01/10 05:26:10;;;;;;;41.60;16.60;;;;;;;8.24;77.74;100802.41;107672;1291;339459;-66
2023/01/10 05:28:37;;;;;;;25.80;12.70;;;;;;;8.35;76.56;100799.83;108647;1290;23770;-65
2023/01/10 05:31:05;;;;;;;28.90;14.20;;;;;;;8.44;75.97;100803.00;108769;1290;22053;-62
2023/01/10 05:33:31;;;;;;;25.50;10.70;;;;;;;8.50;75.31;100803.92;109936;1290;21924;-61
2023/01/10 05:35:58;;;;;;;22.90;9.90;;;;;;;8.57;74.78;100802.20;109954;1290;21824;-59
2023/01/10 05:38:24;;;;;;;23.00;10.10;;;;;;;8.61;74.24;100805.70;108770;1290;22002;-65
2023/01/10 05:40:55;;;;;;;18.30;9.90;;;;;;;8.62;73.93;100813.05;107743;1290;22053;-61
2023/01/10 05:43:22;;;;;;;19.90;9.40;;;;;;;8.64;73.23;100810.96;108975;1284;22025;-66
2023/01/10 05:45:48;;;;;;;16.60;8.60;;;;;;;8.84;72.14;100803.14;107771;1290;21999;-65
2023/01/10 05:48:14;;;;;;;20.10;9.10;;;;;;;8.89;71.61;100799.11;107706;1291;21990;-66
2023/01/10 05:50:39;;;;;;;18.40;9.20;;;;;;;8.85;71.18;100803.66;107667;1291;21991;-62
2023/01/10 05:53:06;;;;;;;22.40;9.30;;;;;;;8.78;70.90;100806.10;107916;1289;21990;-60
2023/01/10 05:55:33;;;;;;;22.40;10.00;;;;;;;8.76;70.91;100806.09;107968;1287;22959;-64
2023/01/10 05:57:59;;;;;;;26.90;11.20;;;;;;;8.75;70.70;100811.52;107754;1289;21995;-61
2023/01/10 06:00:25;;;;;;;17.30;8.60;;;;;;;8.74;70.32;100810.29;107760;1290;21999;-59
2023/01/10 06:02:54;;;;;;;18.00;8.20;;;;;;;8.75;70.09;100814.31;107721;1290;22920;-62
2023/01/10 06:05:21;;;;;;;20.10;8.50;;;;;;;8.79;69.77;100822.02;107833;1290;21994;-60
2023/01/10 06:07:47;;;;;;;21.40;10.40;;;;;;;8.78;69.53;100827.11;107899;1290;22723;-60
2023/01/10 06:10:14;;;;;;;21.20;8.70;;;;;;;8.76;69.34;100826.40;107701;1290;23158;-63
2023/01/10 06:12:40;;;;;;;21.80;9.60;;;;;;;8.77;69.37;100820.98;107922;1290;22001;-60
2023/01/10 06:15:08;;;;;;;17.00;8.80;;;;;;;8.77;69.20;100817.47;107822;1283;22004;-64
2023/01/10 06:17:34;;;;;;;22.50;8.90;;;;;;;8.78;69.09;100812.58;108399;1290;21989;-61
2023/01/10 06:19:59;;;;;;;17.90;9.70;;;;;;;8.80;69.10;100816.77;107820;1290;22027;-60
2023/01/10 06:22:44;;;;;;;16.60;8.60;;;;;;;8.82;68.87;100815.91;107699;1290;21997;-63
2023/01/10 06:25:11;;;;;;;19.70;9.00;;;;;;;8.79;68.54;100818.71;107735;1290;22027;-62
2023/01/10 06:27:41;;;;;;;22.70;9.60;;;;;;;8.81;68.73;100822.39;107863;1290;21988;-61
2023/01/10 06:30:08;;;;;;;22.60;9.80;;;;;;;8.82;68.53;100819.59;107736;1290;23647;-61
2023/01/10 06:32:34;;;;;;;20.20;9.50;;;;;;;8.84;68.46;100819.23;107811;1290;22040;-60
2023/01/10 06:35:00;;;;;;;21.20;9.10;;;;;;;8.87;68.46;100819.94;107748;1290;21993;-60
2023/01/10 06:37:26;;;;;;;20.70;8.70;;;;;;;8.86;68.01;100813.10;107658;1291;22004;-59
2023/01/10 06:39:52;;;;;;;16.70;9.00;;;;;;;8.86;67.90;100808.20;107794;1290;22465;-63
2023/01/10 06:42:18;;;;;;;26.90;15.50;;;;;;;8.89;68.01;100810.15;107733;1290;22058;-63
2023/01/10 06:44:43;;;;;;;34.80;18.90;;;;;;;8.95;67.69;100805.08;107610;1278;22002;-60
2023/01/10 06:47:09;;;;;;;47.80;27.50;;;;;;;8.98;67.49;100803.16;107618;1288;21992;-60
2023/01/10 06:49:35;;;;;;;37.50;22.20;;;;;;;8.99;67.30;100801.23;107639;1291;21995;-63
2023/01/10 06:52:02;;;;;;;41.20;23.30;;;;;;;8.99;67.35;100798.79;107650;1291;22036;-60
2023/01/10 06:54:28;;;;;;;39.10;23.50;;;;;;;9.00;67.34;100804.38;107688;1291;22135;-63
2023/01/10 06:56:54;;;;;;;29.50;17.20;;;;;;;9.04;67.47;100808.41;107783;1291;21998;-62
2023/01/10 06:59:20;;;;;;;38.20;22.60;;;;;;;9.05;67.11;100804.39;107773;1291;21986;-60
2023/01/10 07:01:46;;;;;;;30.20;16.70;;;;;;;9.04;67.01;100801.05;107866;1283;22464;-63
2023/01/10 07:04:12;;;;;;;28.60;12.70;;;;;;;9.05;67.20;100804.73;107663;1291;22000;-60
2023/01/10 07:06:40;;;;;;;20.90;10.20;;;;;;;9.03;67.09;100804.73;107653;1291;22010;-65
2023/01/10 07:09:06;;;;;;;47.40;28.50;;;;;;;9.04;66.97;100800.19;107689;1291;22005;-61
2023/01/10 07:11:33;;;;;;;37.20;21.20;;;;;;;9.04;67.13;100808.06;107783;1291;22031;-61
2023/01/10 07:13:59;;;;;;;53.20;27.50;;;;;;;9.09;67.05;100813.30;107844;1290;22053;-61
2023/01/10 07:16:25;;;;;;;33.20;15.30;;;;;;;9.10;67.06;100806.48;107994;1290;21986;-61
2023/01/10 07:18:51;;;;;;;24.60;13.20;;;;;;;9.12;67.13;100801.23;107949;1290;21989;-60
2023/01/10 07:21:18;;;;;;;21.60;11.10;;;;;;;9.13;67.33;100807.02;107969;1279;21995;-61
2023/01/10 07:23:48;;;;;;;21.30;10.60;;;;;;;9.15;67.18;100805.42;108038;1290;22161;-61
2023/01/10 07:26:19;;;;;;;22.20;8.60;;;;;;;9.18;67.21;100803.34;107900;1290;22312;-61
2023/01/10 07:28:49;;;;;;;18.40;8.40;;;;;;;9.21;67.22;100797.56;107750;1290;21992;-60
2023/01/10 07:31:15;;;;;;;20.70;8.60;;;;;;;9.24;67.21;100796.17;107710;1290;22037;-66
2023/01/10 07:33:42;;;;;;;16.00;8.30;;;;;;;9.27;67.12;100793.36;107614;1291;22003;-62
2023/01/10 07:36:08;;;;;;;19.80;8.40;;;;;;;9.29;67.00;100794.05;108100;1288;22005;-62
2023/01/10 07:38:34;;;;;;;20.50;8.60;;;;;;;9.30;66.93;100797.91;107744;1290;21999;-62
2023/01/10 07:41:03;;;;;;;17.10;7.90;;;;;;;9.33;67.10;100795.46;107554;1290;23814;-67
2023/01/10 07:43:29;;;;;;;20.10;8.70;;;;;;;9.37;67.22;100794.94;107739;1290;22007;-66
2023/01/10 07:45:57;;;;;;;21.10;9.40;;;;;;;9.44;67.28;100803.16;107594;1290;21999;-67
2023/01/10 07:48:24;;;;;;;21.00;8.90;;;;;;;9.52;67.13;100799.64;107722;1290;21995;-66
2023/01/10 07:50:56;;;;;;;16.70;8.30;;;;;;;9.56;67.01;100802.09;107669;1291;22006;-67
2023/01/10 07:53:26;;;;;;;18.30;8.30;;;;;;;9.57;66.96;100815.05;107792;1292;22006;-66
2023/01/10 07:55:51;;;;;;;17.00;8.20;;;;;;;9.59;66.75;100817.17;107694;1291;22007;-67
2023/01/10 07:58:18;;;;;;;21.00;8.80;;;;;;;9.57;66.63;100825.21;107672;1291;21992;-66
2023/01/10 08:00:45;;;;;;;15.30;8.30;;;;;;;9.58;66.43;100825.73;107680;1291;22007;-66
2023/01/10 08:03:11;;;;;;;20.10;9.00;;;;;;;9.59;66.38;100825.73;107701;1291;22007;-64
2023/01/10 08:05:38;;;;;;;17.70;8.80;;;;;;;9.59;66.25;100827.67;107639;1291;21991;-64
2023/01/10 08:08:06;;;;;;;16.90;7.10;;;;;;;9.61;66.59;100829.77;107652;1291;21989;-63
2023/01/10 08:10:33;;;;;;;20.20;8.60;;;;;;;9.63;66.44;100827.14;107817;1290;23674;-65
2023/01/10 08:12:59;;;;;;;20.00;8.10;;;;;;;9.65;66.36;100828.02;107954;1287;21987;-62
2023/01/10 08:15:25;;;;;;;18.60;7.70;;;;;;;9.66;66.26;100822.77;107842;1290;21992;-61
2023/01/10 08:17:54;;;;;;;17.80;8.10;;;;;;;9.67;66.01;100821.35;107784;1276;22004;-61
2023/01/10 08:20:20;;;;;;;15.70;7.80;;;;;;;9.66;66.15;100821.17;107901;1289;23075;-62
2023/01/10 08:22:46;;;;;;;19.40;8.80;;;;;;;9.69;66.03;100817.86;107918;1289;22048;-67
2023/01/10 08:25:13;;;;;;;18.10;8.90;;;;;;;9.69;66.02;100818.91;107829;1289;22025;-61
2023/01/10 08:27:40;;;;;;;18.20;8.30;;;;;;;9.68;66.07;100816.45;107846;1286;22002;-62
2023/01/10 08:30:07;;;;;;;16.90;8.00;;;;;;;9.70;66.03;100815.39;107717;1289;21990;-66
2023/01/10 08:32:35;;;;;;;18.70;8.90;;;;;;;9.74;66.06;100812.23;107764;1289;21995;-66
2023/01/10 08:35:03;;;;;;;16.70;8.10;;;;;;;9.76;66.10;100809.07;107822;1289;22030;-66
2023/01/10 08:37:34;;;;;;;18.90;8.30;;;;;;;9.83;66.23;100813.78;107798;1286;21986;-67
2023/01/10 08:40:00;;;;;;;19.20;8.40;;;;;;;9.85;65.95;100820.28;107764;1289;22028;-62
2023/01/10 08:42:26;;;;;;;18.60;8.80;;;;;;;9.86;65.82;100820.79;107886;1289;22491;-66
2023/01/10 08:44:53;;;;;;;19.80;9.30;;;;;;;9.87;65.73;100819.56;107853;1289;23778;-67
2023/01/10 08:47:20;;;;;;;20.00;9.00;;;;;;;9.86;65.41;100825.01;107939;1289;21992;-67
2023/01/10 08:49:48;;;;;;;20.70;8.40;;;;;;;9.86;65.31;100822.37;107886;1289;21996;-67
2023/01/10 08:52:15;;;;;;;19.50;9.30;;;;;;;9.83;65.32;100815.88;107790;1289;21992;-61
2023/01/10 08:54:41;;;;;;;17.20;8.00;;;;;;;9.86;65.40;100813.61;107762;1289;22348;-61
2023/01/10 08:57:09;;;;;;;22.30;7.60;;;;;;;9.86;65.05;100812.20;107713;1289;22176;-61
2023/01/10 08:59:35;;;;;;;19.00;8.90;;;;;;;9.92;64.78;100810.27;107765;1289;22012;-61
2023/01/10 09:02:52;;;;;;;19.60;8.60;;;;;;;10.08;64.42;100810.73;107791;1289;22113;-68
2023/01/10 09:05:19;;;;;;;18.10;8.20;;;;;;;10.12;63.94;100810.91;107778;1289;21994;-67
2023/01/10 09:07:47;;;;;;;20.20;8.50;;;;;;;10.13;63.79;100799.15;107717;1289;21999;-67
2023/01/10 09:10:13;;;;;;;20.70;8.00;;;;;;;10.13;63.80;100798.10;107809;1286;21988;-61
2023/01/10 09:12:54;;;;;;;16.70;8.60;;;;;;;10.17;63.86;100798.95;107796;1289;22002;-67
2023/01/10 09:15:29;;;;;;;16.50;7.10;;;;;;;10.18;63.60;100805.27;107742;1282;22053;-61
2023/01/10 09:17:56;;;;;;;20.90;8.80;;;;;;;10.20;63.61;100808.77;107796;1289;23040;-61
2023/01/10 09:20:23;;;;;;;18.00;7.70;;;;;;;10.22;63.65;100806.30;107814;1289;23458;-67
2023/01/10 09:22:49;;;;;;;19.50;8.30;;;;;;;10.24;63.55;100801.21;107722;1289;21989;-62
2023/01/10 09:25:15;;;;;;;19.10;7.90;;;;;;;10.23;63.30;100798.40;107856;1288;22009;-66
2023/01/10 09:27:41;;;;;;;19.50;8.10;;;;;;;10.21;63.21;100795.95;107761;1290;21995;-67
2023/01/10 09:30:07;;;;;;;19.10;7.50;;;;;;;10.20;63.30;100793.15;107719;1290;22049;-62
2023/01/10 09:32:33;;;;;;;20.70;7.90;;;;;;;10.18;63.03;100794.05;107716;1276;22014;-62
2023/01/10 09:34:59;;;;;;;20.20;8.70;;;;;;;10.18;63.13;100793.52;107750;1289;21996;-61
2023/01/10 09:37:25;;;;;;;18.30;7.60;;;;;;;10.21;63.18;100791.22;107736;1289;22009;-67
2023/01/10 09:39:51;;;;;;;18.70;7.60;;;;;;;10.21;63.22;100787.52;107812;1289;22009;-66
2023/01/10 09:42:39;;;;;;;16.40;7.30;;;;;;;10.18;63.62;100783.87;107964;1289;23746;-61
2023/01/10 09:45:19;;;;;;;17.70;8.30;;;;;;;10.18;63.53;100779.83;107826;1289;21990;-66
2023/01/10 09:47:54;;;;;;;19.40;8.50;;;;;;;10.17;63.52;100783.16;107723;1289;22073;-66
2023/01/10 09:50:28;;;;;;;16.00;7.10;;;;;;;10.18;63.39;100783.33;107776;1285;21994;-60
2023/01/10 09:53:03;;;;;;;18.20;8.40;;;;;;;10.17;63.44;100784.05;107709;1289;22000;-61
2023/01/10 09:55:31;;;;;;;20.00;8.20;;;;;;;10.21;63.57;100782.10;107632;1289;21999;-60
2023/01/10 09:58:00;;;;;;;20.70;8.80;;;;;;;10.22;63.47;100778.59;107896;1289;22004;-65
2023/01/10 10:00:47;;;;;;;20.60;7.90;;;;;;;10.25;63.55;100771.05;107974;1277;21986;-66
2023/01/10 10:03:20;;;;;;;19.20;8.00;;;;;;;10.30;63.80;100766.27;107902;1289;23718;-65
2023/01/10 16:13:26;;;;;;;27.30;8.80;;;;;;;5.36;99.21;100952.97;108862;1270;547931;-65
2023/01/10 16:15:56;;;;;;;24.90;9.10;;;;;;;8.66;85.20;100946.88;108635;1273;21951;-60
2023/01/10 16:18:22;;;;;;;24.60;9.00;;;;;;;9.10;79.77;100941.81;108682;1277;21986;-66
2023/01/10 16:20:49;;;;;;;22.00;7.70;;;;;;;9.29;77.51;100945.71;108696;1277;21981;-66
2023/01/10 16:23:17;;;;;;;21.50;7.10;;;;;;;9.40;75.79;100941.00;108513;1277;21982;-66
2023/01/10 16:25:49;;;;;;;20.60;7.50;;;;;;;9.48;74.73;100945.04;108518;1275;442739;-61
2023/01/10 16:28:16;;;;;;;16.70;6.60;;;;;;;9.56;73.92;100942.25;108976;1264;21981;-66
2023/01/10 16:30:47;;;;;;;21.40;6.40;;;;;;;9.61;72.92;100944.72;108939;1275;21974;-60
2023/01/10 16:33:23;;;;;;;15.60;5.80;;;;;;;9.69;72.34;100950.84;108896;1275;21981;-61
2023/01/10 16:35:50;;;;;;;15.80;6.30;;;;;;;9.73;71.83;100951.38;108900;1275;22104;-67
2023/01/10 16:38:17;;;;;;;13.20;5.30;;;;;;;9.75;71.34;100952.08;108852;1275;21963;-62
2023/01/10 16:40:55;;;;;;;19.40;6.60;;;;;;;9.83;70.64;100957.87;108879;1275;21984;-67
2023/01/10 16:43:24;;;;;;;16.50;5.50;;;;;;;9.87;70.34;100945.23;108857;1275;21978;-67
2023/01/10 16:45:51;;;;;;;20.00;7.30;;;;;;;9.86;69.67;100943.48;108896;1275;22014;-61
2023/01/10 16:48:18;;;;;;;17.40;5.80;;;;;;;9.84;69.07;100949.27;108870;1275;21977;-67
2023/01/10 16:50:46;;;;;;;15.70;6.30;;;;;;;9.83;68.81;100949.98;108784;1264;21972;-67
2023/01/10 16:53:13;;;;;;;12.90;6.10;;;;;;;9.81;68.60;100952.08;108835;1263;21976;-66
2023/01/10 16:55:41;;;;;;;17.80;5.90;;;;;;;9.79;68.39;100956.45;109032;1275;22018;-66
2023/01/10 16:58:09;;;;;;;16.10;6.40;;;;;;;9.76;67.95;100962.24;108856;1273;21965;-61
2023/01/10 17:00:38;;;;;;;17.50;6.60;;;;;;;9.74;67.57;100968.20;108945;1275;23042;-67
2023/01/10 17:03:11;;;;;;;15.70;5.60;;;;;;;9.72;67.20;100974.86;108941;1272;22109;-67
2023/01/10 17:05:38;;;;;;;16.60;5.60;;;;;;;9.66;66.87;100973.11;108810;1275;21974;-61
2023/01/10 17:08:04;;;;;;;17.00;5.90;;;;;;;9.63;66.82;100972.59;108774;1275;21975;-67
2023/01/10 17:10:33;;;;;;;14.40;5.80;;;;;;;9.64;66.78;100969.95;109024;1270;21971;-67
2023/01/10 17:13:03;;;;;;;16.40;5.20;;;;;;;9.65;66.58;100974.69;109010;1275;21981;-67
2023/01/10 17:15:33;;;;;;;17.40;5.90;;;;;;;9.66;66.50;100978.02;109014;1275;21969;-60
2023/01/10 17:18:00;;;;;;;17.00;6.10;;;;;;;9.64;66.20;100982.73;108874;1275;21975;-67
2023/01/10 17:20:26;;;;;;;15.50;6.30;;;;;;;9.57;65.75;100994.30;108820;1275;21978;-61
2023/01/10 17:22:52;;;;;;;17.60;5.50;;;;;;;9.52;65.49;100995.15;108002;1275;1002819;-67
2023/01/10 17:25:18;;;;;;;13.70;4.70;;;;;;;9.49;65.53;101001.98;108916;1264;21984;-66
2023/01/10 17:27:44;;;;;;;16.30;5.90;;;;;;;9.44;65.51;101008.45;108809;1275;22444;-62
2023/01/10 17:30:13;;;;;;;17.40;6.50;;;;;;;9.44;66.01;101009.33;108862;1275;22158;-66
2023/01/10 17:32:38;;;;;;;17.40;6.20;;;;;;;9.41;65.41;101015.27;108953;1267;22033;-67
2023/01/10 17:35:10;;;;;;;19.20;5.90;;;;;;;9.37;65.12;101017.02;108844;1274;22440;-61
2023/01/10 17:37:43;;;;;;;23.30;6.50;;;;;;;9.33;64.96;101020.15;108885;1275;21982;-61
2023/01/10 17:40:11;;;;;;;12.40;5.50;;;;;;;9.27;64.50;101017.52;108876;1272;21977;-67
2023/01/10 17:42:37;;;;;;;17.70;6.60;;;;;;;9.21;64.24;101026.42;108769;1275;21982;-62
2023/01/10 17:45:05;;;;;;;17.00;5.40;;;;;;;9.17;64.32;101026.41;108874;1275;21979;-61
2023/01/10 17:47:33;;;;;;;12.60;5.60;;;;;;;9.15;64.32;101025.34;108891;1275;21985;-61
2023/01/10 17:49:58;;;;;;;31.20;20.80;;;;;;;9.20;65.07;101024.66;108807;1275;21978;-61
2023/01/10 17:52:27;;;;;;;19.00;7.70;;;;;;;9.31;65.43;101017.17;108846;1275;22007;-67
2023/01/10 17:54:58;;;;;;;12.70;7.00;;;;;;;9.32;64.75;101012.63;108884;1274;21980;-61
2023/01/10 17:57:29;;;;;;;18.00;5.30;;;;;;;9.25;64.01;101022.41;108843;1275;21996;-61
2023/01/10 17:59:57;;;;;;;15.30;6.00;;;;;;;9.15;63.54;101023.25;108872;1275;21972;-61
2023/01/10 18:02:23;;;;;;;18.20;6.50;;;;;;;9.10;63.44;101020.60;108162;1275;1002707;-61
2023/01/10 18:04:52;;;;;;;15.30;5.40;;;;;;;9.05;63.46;101016.56;108808;1275;21975;-61
2023/01/10 18:07:18;;;;;;;13.30;5.30;;;;;;;9.06;63.87;101015.52;108819;1275;21987;-61
2023/01/10 18:09:44;;;;;;;19.20;5.90;;;;;;;9.08;63.70;101017.44;108852;1275;21973;-61
2023/01/10 18:12:11;;;;;;;14.90;4.90;;;;;;;9.07;63.56;101019.72;108828;1275;21988;-61
2023/01/10 18:14:37;;;;;;;14.70;5.00;;;;;;;9.10;63.75;101019.37;108968;1275;21973;-61
2023/01/10 18:17:09;;;;;;;13.90;5.30;;;;;;;9.11;63.60;101025.33;108919;1275;23066;-62
2023/01/10 18:19:35;;;;;;;14.30;5.10;;;;;;;9.06;62.99;101028.98;108822;1275;22151;-62
2023/01/10 18:24:52;;;;;;;19.50;5.30;;;;;;;9.04;63.46;101035.64;108873;1275;23488;-60
2023/01/10 18:27:19;;;;;;;11.50;4.50;;;;;;;9.04;63.31;101039.14;108887;1275;21974;-62
2023/01/10 18:29:49;;;;;;;13.90;5.90;;;;;;;9.01;63.10;101041.75;108925;1275;21977;-60
2023/01/10 18:32:17;;;;;;;13.90;5.40;;;;;;;8.98;62.84;101048.57;108882;1275;21980;-61
2023/01/10 18:34:43;;;;;;;18.00;6.10;;;;;;;8.94;62.75;101049.77;108937;1275;21984;-61
2023/01/10 18:37:09;;;;;;;15.40;5.80;;;;;;;8.88;62.64;101049.02;108953;1272;21988;-67
2023/01/10 18:39:39;;;;;;;13.40;5.40;;;;;;;8.84;62.61;101048.82;109100;1275;23894;-66
2023/01/10 18:42:05;;;;;;;12.30;5.50;;;;;;;8.83;62.56;101050.94;109259;1263;21970;-61
2023/01/10 18:44:32;;;;;;;15.80;5.60;;;;;;;8.84;62.28;101056.54;109109;1275;21979;-61
2023/01/10 18:46:58;;;;;;;13.90;5.20;;;;;;;8.87;62.37;101050.77;108853;1275;22070;-67
2023/01/10 18:49:26;;;;;;;15.40;5.40;;;;;;;8.88;62.44;101051.48;108874;1275;22012;-66
2023/01/10 18:51:52;;;;;;;19.30;5.80;;;;;;;8.91;62.70;101046.60;108902;1275;21979;-66
2023/01/10 18:54:23;;;;;;;12.40;5.20;;;;;;;8.95;62.67;101044.68;108937;1275;21979;-61
2023/01/10 18:56:51;;;;;;;13.60;5.80;;;;;;;8.91;62.06;101048.69;108913;1275;22014;-61
2023/01/10 18:59:18;;;;;;;14.10;5.60;;;;;;;8.87;62.20;101052.52;108919;1270;21981;-67
